Nieuwegein, Netherlands
Current Conditions -  °F | °C
As of 2:25 PM on Friday 19 Dec 2014 (Local Time) from EHAM Reporting Station
Few Clouds Few Clouds  
Wind Chill: 39°   Ceiling: Unl
Heat Index: 46°   Visibility: 6mi
Dew Point: 37°   Wind: 21mph
Humidity: 71%   Direction: 280°W
Pressure: 29.85"   Gusts: NA
Location:  52.03°N, 5.08°E
Report Text: EHAM 191325Z 28018KT 250V310 9999 FEW028 08/03 Q1011 NOSIG
Loading
Personal Weather Stations






























Interactive Weather Map New forecast layout! Learn more

10-Day Weather Forecast

Advertisements
Track Severe Weather on mobile